Ludwig Schulte — 9VFK9 — position and weather

sailwx.info

Track history (hours):
 
Tides and Currents Weather Stations Pressure Air Temp Water Temp Dewpoint Dewpoint Depression Visibility Wind Speed Wind Dir Waves Ship Positions

Ludwig Schulte

Last reported at 2017-Dec-16 20:26 UTC. Time now 2017-Dec-16 20:52 UTC.
Position N 46°30' E 030°44'.

Length 175 m; draft 8.6 m.

Type: Ship (hazmat cat A). MMSI: 565970000.

Date/timePositionNaut miles runAvg speedWind from/ knotsBaromVisibWave heightAir tempDewpointWater temp
2017-Dec-16 20:26N 46°30' E 030°44'0 0.0
2017-Dec-16 19:55N 46°30' E 030°44'0 0.0
2017-Dec-16 19:19N 46°30' E 030°44'0 0.0
2017-Dec-16 18:58N 46°30' E 030°44'0 0.0
2017-Dec-16 17:37N 46°30' E 030°44'0 0.0
2017-Dec-16 17:27N 46°30' E 030°44'1 2.0
2017-Dec-16 17:00N 46°30' E 030°45'3 5.3
2017-Dec-16 16:30N 46°29' E 030°49'5 9.2
2017-Dec-16 16:00N 46°25' E 030°52'33615.3
2017-Dec-15 18:02N 40°59' E 028°60'010.4
2017-Dec-15 18:00N 40°59' E 028°60'4 7.9
2017-Dec-15 17:31N 40°55' E 028°60'4 6.8
2017-Dec-15 17:00N 40°52' E 029°01'3 6.7
2017-Dec-15 16:31N 40°49' E 028°60'0 0.2
2017-Dec-15 16:00N 40°49' E 028°60'0 0.4
2017-Dec-15 15:31N 40°48' E 028°60'0 0.5
2017-Dec-15 15:01N 40°48' E 028°59'0 0.9
2017-Dec-15 14:29N 40°48' E 028°59'0 0.1
2017-Dec-15 13:59N 40°48' E 028°59'3 5.3
2017-Dec-15 13:28N 40°49' E 028°56'0 0.7
2017-Dec-15 12:59N 40°49' E 028°56'0 0.9
2017-Dec-15 12:31N 40°49' E 028°56'0 0.8
2017-Dec-15 12:00N 40°48' E 028°56'0 0.7
2017-Dec-15 11:31N 40°48' E 028°56'0 0.7
2017-Dec-15 11:01N 40°48' E 028°55'0 0.4
2017-Dec-15 10:29N 40°48' E 028°56'3 5.3
2017-Dec-15 10:00N 40°50' E 028°58'0 0.7
2017-Dec-15 09:30N 40°49' E 028°58'0 0.8
2017-Dec-15 09:00N 40°49' E 028°57'0 0.9
2017-Dec-15 08:30N 40°49' E 028°57'0 0.8
2017-Dec-15 08:00N 40°49' E 028°56'1 1.4
2017-Dec-15 07:25N 40°50' E 028°56'1 2.5
2017-Dec-15 06:59N 40°50' E 028°54'26112.4
2017-Dec-14 09:58N 37°59' E 024°39'612.4
2017-Dec-14 09:30N 37°54' E 024°35'612.2
2017-Dec-14 09:00N 37°50' E 024°29'612.5
2017-Dec-14 08:30N 37°46' E 024°23'1012.3
2017-Dec-14 07:40N 37°39' E 024°13'312.9
2017-Dec-14 07:24N 37°36' E 024°11'512.6
2017-Dec-14 07:00N 37°32' E 024°08'612.5
2017-Dec-14 06:31N 37°27' E 024°04'612.5
2017-Dec-14 06:00N 37°21' E 024°01'812.3
2017-Dec-14 05:21N 37°14' E 023°57'712.0
2017-Dec-14 04:45N 37°07' E 023°54'312.2
2017-Dec-14 04:31N 37°04' E 023°52'612.2
2017-Dec-14 04:00N 36°58' E 023°50'712.2
2017-Dec-14 03:28N 36°52' E 023°47'3712.1
2017-Dec-14 00:22N 36°17' E 023°30'42212.2
2017-Dec-12 13:46N 35°49' E 014°49'312.4
2017-Dec-12 13:30N 35°49' E 014°45'612.8
2017-Dec-12 13:00N 35°48' E 014°37'4 0.1
2017-Dec-11 09:25N 35°49' E 014°33'1 2.0
2017-Dec-11 09:01N 35°49' E 014°34'4 4.6
2017-Dec-11 08:14N 35°47' E 014°38'1 2.2
2017-Dec-11 08:00N 35°47' E 014°37'9 8.3
2017-Dec-11 06:58N 35°46' E 014°26'511.5
2017-Dec-11 06:30N 35°47' E 014°20'713.2
2017-Dec-11 06:00N 35°50' E 014°13'714.1
2017-Dec-11 05:30N 35°54' E 014°06'612.6
2017-Dec-11 05:00N 35°57' E 013°59'713.3
2017-Dec-11 04:29N 36°01' E 013°52'  
Track history (hours):
 
Tides and Currents Weather Stations Pressure Air Temp Water Temp Dewpoint Dewpoint Depression Visibility Wind Speed Wind Dir Waves Ship Positions

Ludwig Schulte

Last reported at 2017-Dec-16 20:26 UTC. Time now 2017-Dec-16 20:52 UTC.
Position N 46°30' E 030°44'.

Length 175 m; draft 8.6 m.

Type: Ship (hazmat cat A). MMSI: 565970000.

Date/timePositionNaut miles runAvg speedWind from/ knotsBaromVisibWave heightAir tempDewpointWater temp
2017-Dec-16 20:26N 46°30' E 030°44'0 0.0
2017-Dec-16 19:55N 46°30' E 030°44'0 0.0
2017-Dec-16 19:19N 46°30' E 030°44'0 0.0
2017-Dec-16 18:58N 46°30' E 030°44'0 0.0
2017-Dec-16 17:37N 46°30' E 030°44'0 0.0
2017-Dec-16 17:27N 46°30' E 030°44'1 2.0
2017-Dec-16 17:00N 46°30' E 030°45'3 5.3
2017-Dec-16 16:30N 46°29' E 030°49'5 9.2
2017-Dec-16 16:00N 46°25' E 030°52'33615.3
2017-Dec-15 18:02N 40°59' E 028°60'010.4
2017-Dec-15 18:00N 40°59' E 028°60'4 7.9
2017-Dec-15 17:31N 40°55' E 028°60'4 6.8
2017-Dec-15 17:00N 40°52' E 029°01'3 6.7
2017-Dec-15 16:31N 40°49' E 028°60'0 0.2
2017-Dec-15 16:00N 40°49' E 028°60'0 0.4
2017-Dec-15 15:31N 40°48' E 028°60'0 0.5
2017-Dec-15 15:01N 40°48' E 028°59'0 0.9
2017-Dec-15 14:29N 40°48' E 028°59'0 0.1
2017-Dec-15 13:59N 40°48' E 028°59'3 5.3
2017-Dec-15 13:28N 40°49' E 028°56'0 0.7
2017-Dec-15 12:59N 40°49' E 028°56'0 0.9
2017-Dec-15 12:31N 40°49' E 028°56'0 0.8
2017-Dec-15 12:00N 40°48' E 028°56'0 0.7
2017-Dec-15 11:31N 40°48' E 028°56'0 0.7
2017-Dec-15 11:01N 40°48' E 028°55'0 0.4
2017-Dec-15 10:29N 40°48' E 028°56'3 5.3
2017-Dec-15 10:00N 40°50' E 028°58'0 0.7
2017-Dec-15 09:30N 40°49' E 028°58'0 0.8
2017-Dec-15 09:00N 40°49' E 028°57'0 0.9
2017-Dec-15 08:30N 40°49' E 028°57'0 0.8
2017-Dec-15 08:00N 40°49' E 028°56'1 1.4
2017-Dec-15 07:25N 40°50' E 028°56'1 2.5
2017-Dec-15 06:59N 40°50' E 028°54'26112.4
2017-Dec-14 09:58N 37°59' E 024°39'612.4
2017-Dec-14 09:30N 37°54' E 024°35'612.2
2017-Dec-14 09:00N 37°50' E 024°29'612.5
2017-Dec-14 08:30N 37°46' E 024°23'1012.3
2017-Dec-14 07:40N 37°39' E 024°13'312.9
2017-Dec-14 07:24N 37°36' E 024°11'512.6
2017-Dec-14 07:00N 37°32' E 024°08'612.5
2017-Dec-14 06:31N 37°27' E 024°04'612.5
2017-Dec-14 06:00N 37°21' E 024°01'812.3
2017-Dec-14 05:21N 37°14' E 023°57'712.0
2017-Dec-14 04:45N 37°07' E 023°54'312.2
2017-Dec-14 04:31N 37°04' E 023°52'612.2
2017-Dec-14 04:00N 36°58' E 023°50'712.2
2017-Dec-14 03:28N 36°52' E 023°47'3712.1
2017-Dec-14 00:22N 36°17' E 023°30'42212.2
2017-Dec-12 13:46N 35°49' E 014°49'312.4
2017-Dec-12 13:30N 35°49' E 014°45'612.8
2017-Dec-12 13:00N 35°48' E 014°37'4 0.1
2017-Dec-11 09:25N 35°49' E 014°33'1 2.0
2017-Dec-11 09:01N 35°49' E 014°34'4 4.6
2017-Dec-11 08:14N 35°47' E 014°38'1 2.2
2017-Dec-11 08:00N 35°47' E 014°37'9 8.3
2017-Dec-11 06:58N 35°46' E 014°26'511.5
2017-Dec-11 06:30N 35°47' E 014°20'713.2
2017-Dec-11 06:00N 35°50' E 014°13'714.1
2017-Dec-11 05:30N 35°54' E 014°06'612.6
2017-Dec-11 05:00N 35°57' E 013°59'713.3
2017-Dec-11 04:29N 36°01' E 013°52'  

Dump ship's entire track history